sensor_id;sensor_type;location;lat;lon;timestamp;temperature;humidity
32173;DHT22;18679;45.190;5.722;2023-04-01T00:01:12;15.50;54.40
32173;DHT22;18679;45.190;5.722;2023-04-01T00:04:17;15.40;54.50
32173;DHT22;18679;45.190;5.722;2023-04-01T00:07:18;15.40;54.50
32173;DHT22;18679;45.190;5.722;2023-04-01T00:10:19;15.40;54.50
32173;DHT22;18679;45.190;5.722;2023-04-01T00:13:20;15.40;54.60
32173;DHT22;18679;45.190;5.722;2023-04-01T00:16:21;15.30;54.70
32173;DHT22;18679;45.190;5.722;2023-04-01T00:19:22;15.30;54.80
32173;DHT22;18679;45.190;5.722;2023-04-01T00:22:24;15.30;54.90
32173;DHT22;18679;45.190;5.722;2023-04-01T00:25:25;15.30;54.90
32173;DHT22;18679;45.190;5.722;2023-04-01T00:28:26;15.20;54.90
32173;DHT22;18679;45.190;5.722;2023-04-01T00:31:27;15.20;55.30
32173;DHT22;18679;45.190;5.722;2023-04-01T00:34:28;15.20;55.50
32173;DHT22;18679;45.190;5.722;2023-04-01T00:37:29;15.10;55.80
32173;DHT22;18679;45.190;5.722;2023-04-01T00:40:41;15.00;55.90
32173;DHT22;18679;45.190;5.722;2023-04-01T00:43:44;14.90;56.10
32173;DHT22;18679;45.190;5.722;2023-04-01T00:46:45;14.80;56.30
32173;DHT22;18679;45.190;5.722;2023-04-01T00:49:49;14.70;56.50
32173;DHT22;18679;45.190;5.722;2023-04-01T00:52:50;14.70;56.80
32173;DHT22;18679;45.190;5.722;2023-04-01T00:56:05;14.70;56.90
32173;DHT22;18679;45.190;5.722;2023-04-01T00:59:11;14.70;57.10
32173;DHT22;18679;45.190;5.722;2023-04-01T01:02:14;14.70;57.30
32173;DHT22;18679;45.190;5.722;2023-04-01T01:05:16;14.70;57.20
32173;DHT22;18679;45.190;5.722;2023-04-01T01:12:07;14.60;57.20
32173;DHT22;18679;45.190;5.722;2023-04-01T01:15:29;14.60;57.10
32173;DHT22;18679;45.190;5.722;2023-04-01T01:18:53;14.60;57.20
32173;DHT22;18679;45.190;5.722;2023-04-01T01:22:31;14.60;57.10
32173;DHT22;18679;45.190;5.722;2023-04-01T01:25:57;14.60;57.10
32173;DHT22;18679;45.190;5.722;2023-04-01T01:32:48;14.60;57.00
32173;DHT22;18679;45.190;5.722;2023-04-01T01:35:56;14.60;57.20
32173;DHT22;18679;45.190;5.722;2023-04-01T01:38:58;14.60;57.20
32173;DHT22;18679;45.190;5.722;2023-04-01T01:42:03;14.60;57.20
32173;DHT22;18679;45.190;5.722;2023-04-01T01:45:06;14.70;57.30
32173;DHT22;18679;45.190;5.722;2023-04-01T01:48:09;14.70;57.20
32173;DHT22;18679;45.190;5.722;2023-04-01T01:51:11;14.70;57.20
32173;DHT22;18679;45.190;5.722;2023-04-01T01:54:16;14.70;57.20
32173;DHT22;18679;45.190;5.722;2023-04-01T01:57:22;14.80;57.20
32173;DHT22;18679;45.190;5.722;2023-04-01T02:00:26;14.80;57.20
32173;DHT22;18679;45.190;5.722;2023-04-01T02:03:30;14.80;57.20
32173;DHT22;18679;45.190;5.722;2023-04-01T02:06:35;14.80;57.20
32173;DHT22;18679;45.190;5.722;2023-04-01T02:09:38;14.80;57.20
32173;DHT22;18679;45.190;5.722;2023-04-01T02:12:42;14.80;57.20
32173;DHT22;18679;45.190;5.722;2023-04-01T02:15:47;14.80;57.20
32173;DHT22;18679;45.190;5.722;2023-04-01T02:18:51;14.80;57.20
32173;DHT22;18679;45.190;5.722;2023-04-01T02:21:57;14.80;57.20
32173;DHT22;18679;45.190;5.722;2023-04-01T02:25:07;14.80;57.20
32173;DHT22;18679;45.190;5.722;2023-04-01T02:28:09;14.80;57.20
32173;DHT22;18679;45.190;5.722;2023-04-01T02:31:12;14.70;57.10
32173;DHT22;18679;45.190;5.722;2023-04-01T02:34:15;14.70;57.10
32173;DHT22;18679;45.190;5.722;2023-04-01T02:37:16;14.80;57.20
32173;DHT22;18679;45.190;5.722;2023-04-01T02:40:17;14.70;57.20
32173;DHT22;18679;45.190;5.722;2023-04-01T02:43:18;14.80;57.20
32173;DHT22;18679;45.190;5.722;2023-04-01T02:46:20;14.70;57.10
32173;DHT22;18679;45.190;5.722;2023-04-01T02:49:21;14.70;57.10
32173;DHT22;18679;45.190;5.722;2023-04-01T02:52:22;14.70;57.10
32173;DHT22;18679;45.190;5.722;2023-04-01T02:55:22;14.60;57.20
32173;DHT22;18679;45.190;5.722;2023-04-01T02:58:23;14.70;57.30
32173;DHT22;18679;45.190;5.722;2023-04-01T03:01:24;14.60;57.30
32173;DHT22;18679;45.190;5.722;2023-04-01T03:04:25;14.70;57.40
32173;DHT22;18679;45.190;5.722;2023-04-01T03:07:26;14.70;57.40
32173;DHT22;18679;45.190;5.722;2023-04-01T03:10:27;14.70;57.90
32173;DHT22;18679;45.190;5.722;2023-04-01T03:13:28;14.80;57.30
32173;DHT22;18679;45.190;5.722;2023-04-01T03:16:29;14.70;57.30
32173;DHT22;18679;45.190;5.722;2023-04-01T03:19:30;14.70;57.50
32173;DHT22;18679;45.190;5.722;2023-04-01T03:22:31;14.60;57.70
32173;DHT22;18679;45.190;5.722;2023-04-01T03:25:32;14.50;57.90
32173;DHT22;18679;45.190;5.722;2023-04-01T03:28:33;14.40;58.20
32173;DHT22;18679;45.190;5.722;2023-04-01T03:31:33;14.40;58.40
32173;DHT22;18679;45.190;5.722;2023-04-01T03:34:35;14.30;58.50
32173;DHT22;18679;45.190;5.722;2023-04-01T03:37:36;14.20;58.70
32173;DHT22;18679;45.190;5.722;2023-04-01T03:40:37;14.20;58.90
32173;DHT22;18679;45.190;5.722;2023-04-01T03:43:39;14.20;59.10
32173;DHT22;18679;45.190;5.722;2023-04-01T03:46:40;14.10;59.10
32173;DHT22;18679;45.190;5.722;2023-04-01T03:49:40;14.10;59.20
32173;DHT22;18679;45.190;5.722;2023-04-01T03:52:41;14.20;59.20
32173;DHT22;18679;45.190;5.722;2023-04-01T03:55:42;14.20;59.20
32173;DHT22;18679;45.190;5.722;2023-04-01T03:58:43;14.20;59.00
32173;DHT22;18679;45.190;5.722;2023-04-01T04:01:46;14.20;59.00
32173;DHT22;18679;45.190;5.722;2023-04-01T04:04:48;14.30;59.20
32173;DHT22;18679;45.190;5.722;2023-04-01T04:07:49;14.20;59.10
32173;DHT22;18679;45.190;5.722;2023-04-01T04:10:56;14.30;59.10
32173;DHT22;18679;45.190;5.722;2023-04-01T04:13:57;14.20;59.20
32173;DHT22;18679;45.190;5.722;2023-04-01T04:16:58;14.20;59.30
32173;DHT22;18679;45.190;5.722;2023-04-01T04:20:00;14.20;59.10
32173;DHT22;18679;45.190;5.722;2023-04-01T04:23:01;14.20;59.10
32173;DHT22;18679;45.190;5.722;2023-04-01T04:26:06;14.30;59.00
32173;DHT22;18679;45.190;5.722;2023-04-01T04:29:08;14.30;59.10
32173;DHT22;18679;45.190;5.722;2023-04-01T04:32:09;14.30;59.10
32173;DHT22;18679;45.190;5.722;2023-04-01T04:35:10;14.30;59.10
32173;DHT22;18679;45.190;5.722;2023-04-01T04:38:11;14.30;59.10
32173;DHT22;18679;45.190;5.722;2023-04-01T04:41:14;14.20;59.10
32173;DHT22;18679;45.190;5.722;2023-04-01T04:44:17;14.30;59.20
32173;DHT22;18679;45.190;5.722;2023-04-01T04:47:18;14.20;59.20
32173;DHT22;18679;45.190;5.722;2023-04-01T04:50:19;14.30;59.20
32173;DHT22;18679;45.190;5.722;2023-04-01T04:53:20;14.30;59.20
32173;DHT22;18679;45.190;5.722;2023-04-01T04:56:22;14.30;59.20
32173;DHT22;18679;45.190;5.722;2023-04-01T04:59:43;14.30;59.20
32173;DHT22;18679;45.190;5.722;2023-04-01T05:02:57;14.30;59.30
32173;DHT22;18679;45.190;5.722;2023-04-01T05:05:58;14.40;59.30
32173;DHT22;18679;45.190;5.722;2023-04-01T05:08:59;14.40;59.20
32173;DHT22;18679;45.190;5.722;2023-04-01T05:12:00;14.40;59.20
32173;DHT22;18679;45.190;5.722;2023-04-01T05:15:07;14.40;59.30
32173;DHT22;18679;45.190;5.722;2023-04-01T05:18:08;14.40;59.30
32173;DHT22;18679;45.190;5.722;2023-04-01T05:21:11;14.40;59.30
32173;DHT22;18679;45.190;5.722;2023-04-01T05:24:12;14.50;59.30
32173;DHT22;18679;45.190;5.722;2023-04-01T05:27:14;14.50;59.10
32173;DHT22;18679;45.190;5.722;2023-04-01T05:30:16;14.50;59.10
32173;DHT22;18679;45.190;5.722;2023-04-01T05:33:31;14.50;59.10
32173;DHT22;18679;45.190;5.722;2023-04-01T05:36:32;14.50;59.10
32173;DHT22;18679;45.190;5.722;2023-04-01T05:39:37;14.50;59.10
32173;DHT22;18679;45.190;5.722;2023-04-01T05:42:38;14.40;59.00
32173;DHT22;18679;45.190;5.722;2023-04-01T05:45:40;14.40;59.20
32173;DHT22;18679;45.190;5.722;2023-04-01T05:48:59;14.40;59.40
32173;DHT22;18679;45.190;5.722;2023-04-01T05:52:02;14.30;59.40
32173;DHT22;18679;45.190;5.722;2023-04-01T05:55:03;14.20;59.50
32173;DHT22;18679;45.190;5.722;2023-04-01T05:58:05;14.20;59.70
32173;DHT22;18679;45.190;5.722;2023-04-01T06:01:11;14.20;59.90
32173;DHT22;18679;45.190;5.722;2023-04-01T06:04:17;14.20;60.00
32173;DHT22;18679;45.190;5.722;2023-04-01T06:07:19;14.20;60.00
32173;DHT22;18679;45.190;5.722;2023-04-01T06:10:21;14.20;60.10
32173;DHT22;18679;45.190;5.722;2023-04-01T06:17:13;14.30;60.30
32173;DHT22;18679;45.190;5.722;2023-04-01T06:30:04;14.30;59.90
32173;DHT22;18679;45.190;5.722;2023-04-01T06:37:09;14.50;59.80
32173;DHT22;18679;45.190;5.722;2023-04-01T06:47:42;14.70;59.80
32173;DHT22;18679;45.190;5.722;2023-04-01T06:51:12;14.70;59.70
32173;DHT22;18679;45.190;5.722;2023-04-01T06:54:40;14.70;59.60
32173;DHT22;18679;45.190;5.722;2023-04-01T06:58:27;14.80;59.50
32173;DHT22;18679;45.190;5.722;2023-04-01T07:01:34;14.90;59.00
32173;DHT22;18679;45.190;5.722;2023-04-01T07:04:42;14.90;58.70
32173;DHT22;18679;45.190;5.722;2023-04-01T07:07:52;15.00;58.50
32173;DHT22;18679;45.190;5.722;2023-04-01T07:11:04;15.00;58.30
32173;DHT22;18679;45.190;5.722;2023-04-01T07:14:41;15.00;58.10
32173;DHT22;18679;45.190;5.722;2023-04-01T07:17:44;15.00;58.20
32173;DHT22;18679;45.190;5.722;2023-04-01T07:20:47;15.00;58.10
32173;DHT22;18679;45.190;5.722;2023-04-01T07:23:54;15.00;58.10
32173;DHT22;18679;45.190;5.722;2023-04-01T07:27:26;15.10;58.10
32173;DHT22;18679;45.190;5.722;2023-04-01T07:30:32;15.30;57.80
32173;DHT22;18679;45.190;5.722;2023-04-01T07:37:33;15.70;57.50
32173;DHT22;18679;45.190;5.722;2023-04-01T07:51:29;16.10;56.10
32173;DHT22;18679;45.190;5.722;2023-04-01T07:54:49;16.10;55.80
32173;DHT22;18679;45.190;5.722;2023-04-01T08:08:18;16.40;55.50
32173;DHT22;18679;45.190;5.722;2023-04-01T08:12:12;16.40;55.30
32173;DHT22;18679;45.190;5.722;2023-04-01T08:22:35;16.10;55.60
32173;DHT22;18679;45.190;5.722;2023-04-01T08:29:19;16.10;55.80
32173;DHT22;18679;45.190;5.722;2023-04-01T08:32:26;15.90;56.00
32173;DHT22;18679;45.190;5.722;2023-04-01T08:35:38;15.80;56.50
32173;DHT22;18679;45.190;5.722;2023-04-01T08:38:49;15.80;56.70
32173;DHT22;18679;45.190;5.722;2023-04-01T08:52:02;16.20;56.00
32173;DHT22;18679;45.190;5.722;2023-04-01T09:12:34;16.80;54.60
32173;DHT22;18679;45.190;5.722;2023-04-01T09:26:12;17.30;53.10
32173;DHT22;18679;45.190;5.722;2023-04-01T09:39:43;18.00;50.50
32173;DHT22;18679;45.190;5.722;2023-04-01T09:43:16;18.30;50.40
32173;DHT22;18679;45.190;5.722;2023-04-01T09:46:46;18.60;49.50
32173;DHT22;18679;45.190;5.722;2023-04-01T09:50:21;18.70;48.60
32173;DHT22;18679;45.190;5.722;2023-04-01T10:04:10;18.90;47.10
32173;DHT22;18679;45.190;5.722;2023-04-01T10:21:47;19.10;45.40
32173;DHT22;18679;45.190;5.722;2023-04-01T10:56:33;18.50;46.40
32173;DHT22;18679;45.190;5.722;2023-04-01T11:11:17;18.70;46.90
32173;DHT22;18679;45.190;5.722;2023-04-01T11:42:14;19.00;45.50
32173;DHT22;18679;45.190;5.722;2023-04-01T11:45:49;18.80;46.30
32173;DHT22;18679;45.190;5.722;2023-04-01T11:56:10;19.70;46.20
32173;DHT22;18679;45.190;5.722;2023-04-01T12:02:37;20.80;43.70
32173;DHT22;18679;45.190;5.722;2023-04-01T12:19:48;23.80;38.10
32173;DHT22;18679;45.190;5.722;2023-04-01T12:23:15;24.50;36.10
32173;DHT22;18679;45.190;5.722;2023-04-01T12:26:43;25.00;34.60
32173;DHT22;18679;45.190;5.722;2023-04-01T12:43:02;25.80;31.90
32173;DHT22;18679;45.190;5.722;2023-04-01T12:53:13;24.20;32.70
32173;DHT22;18679;45.190;5.722;2023-04-01T13:23:42;25.70;30.00
32173;DHT22;18679;45.190;5.722;2023-04-01T13:33:38;23.90;32.20
32173;DHT22;18679;45.190;5.722;2023-04-01T13:37:18;23.30;32.90
32173;DHT22;18679;45.190;5.722;2023-04-01T13:40:53;22.70;33.40
32173;DHT22;18679;45.190;5.722;2023-04-01T13:44:12;22.20;34.10
32173;DHT22;18679;45.190;5.722;2023-04-01T13:50:32;21.30;35.30
32173;DHT22;18679;45.190;5.722;2023-04-01T14:03:54;20.10;36.60
32173;DHT22;18679;45.190;5.722;2023-04-01T14:23:30;18.90;38.40
32173;DHT22;18679;45.190;5.722;2023-04-01T14:41:12;18.30;41.70
32173;DHT22;18679;45.190;5.722;2023-04-01T14:44:55;18.30;42.50
32173;DHT22;18679;45.190;5.722;2023-04-01T14:48:05;18.10;43.00
32173;DHT22;18679;45.190;5.722;2023-04-01T14:51:31;17.90;43.10
32173;DHT22;18679;45.190;5.722;2023-04-01T14:54:36;17.60;43.80
32173;DHT22;18679;45.190;5.722;2023-04-01T14:57:38;17.40;44.80
32173;DHT22;18679;45.190;5.722;2023-04-01T15:14:04;16.60;47.30
32173;DHT22;18679;45.190;5.722;2023-04-01T15:24:14;16.20;48.60
32173;DHT22;18679;45.190;5.722;2023-04-01T15:34:36;15.70;49.90
32173;DHT22;18679;45.190;5.722;2023-04-01T15:37:55;15.60;50.50
32173;DHT22;18679;45.190;5.722;2023-04-01T15:48:22;15.50;51.80
32173;DHT22;18679;45.190;5.722;2023-04-01T15:55:37;15.60;51.60
32173;DHT22;18679;45.190;5.722;2023-04-01T16:02:30;15.90;51.20
32173;DHT22;18679;45.190;5.722;2023-04-01T16:12:49;16.10;51.30
32173;DHT22;18679;45.190;5.722;2023-04-01T16:16:07;16.10;51.50
32173;DHT22;18679;45.190;5.722;2023-04-01T16:25:44;15.90;52.40
32173;DHT22;18679;45.190;5.722;2023-04-01T16:32:31;15.60;53.60
32173;DHT22;18679;45.190;5.722;2023-04-01T16:42:51;15.40;54.50
32173;DHT22;18679;45.190;5.722;2023-04-01T16:49:36;15.30;53.60
32173;DHT22;18679;45.190;5.722;2023-04-01T16:53:08;15.40;53.30
32173;DHT22;18679;45.190;5.722;2023-04-01T16:59:29;15.60;51.60
32173;DHT22;18679;45.190;5.722;2023-04-01T17:02:38;15.70;51.40
32173;DHT22;18679;45.190;5.722;2023-04-01T17:06:07;15.80;51.10
32173;DHT22;18679;45.190;5.722;2023-04-01T17:15:58;16.00;49.40
32173;DHT22;18679;45.190;5.722;2023-04-01T17:19:38;16.10;49.00
32173;DHT22;18679;45.190;5.722;2023-04-01T17:29:46;15.80;49.20
32173;DHT22;18679;45.190;5.722;2023-04-01T17:33:20;15.70;49.70
32173;DHT22;18679;45.190;5.722;2023-04-01T17:42:39;15.60;50.90
32173;DHT22;18679;45.190;5.722;2023-04-01T17:45:53;15.40;50.90
32173;DHT22;18679;45.190;5.722;2023-04-01T18:22:37;14.50;53.60
32173;DHT22;18679;45.190;5.722;2023-04-01T18:25:44;14.30;54.00
32173;DHT22;18679;45.190;5.722;2023-04-01T18:32:44;14.00;54.90
32173;DHT22;18679;45.190;5.722;2023-04-01T18:36:03;14.00;55.50
32173;DHT22;18679;45.190;5.722;2023-04-01T18:39:22;13.90;56.00
32173;DHT22;18679;45.190;5.722;2023-04-01T18:45:56;13.60;56.50
32173;DHT22;18679;45.190;5.722;2023-04-01T18:49:20;13.50;56.70
32173;DHT22;18679;45.190;5.722;2023-04-01T18:52:32;13.50;56.70
32173;DHT22;18679;45.190;5.722;2023-04-01T18:55:40;13.40;56.40
32173;DHT22;18679;45.190;5.722;2023-04-01T18:58:54;13.30;56.40
32173;DHT22;18679;45.190;5.722;2023-04-01T19:05:19;13.20;57.50
32173;DHT22;18679;45.190;5.722;2023-04-01T19:08:32;13.20;58.20
32173;DHT22;18679;45.190;5.722;2023-04-01T19:31:58;13.20;60.90
32173;DHT22;18679;45.190;5.722;2023-04-01T19:38:41;13.20;60.80
32173;DHT22;18679;45.190;5.722;2023-04-01T19:52:00;13.00;61.70
32173;DHT22;18679;45.190;5.722;2023-04-01T19:58:41;13.00;61.90
32173;DHT22;18679;45.190;5.722;2023-04-01T20:01:51;13.00;61.90
32173;DHT22;18679;45.190;5.722;2023-04-01T20:04:55;13.10;62.10
32173;DHT22;18679;45.190;5.722;2023-04-01T20:08:10;13.10;61.90
32173;DHT22;18679;45.190;5.722;2023-04-01T20:14:54;13.20;61.40
32173;DHT22;18679;45.190;5.722;2023-04-01T20:17:58;13.20;60.90
32173;DHT22;18679;45.190;5.722;2023-04-01T20:21:19;13.20;60.60
32173;DHT22;18679;45.190;5.722;2023-04-01T20:24:26;13.20;60.70
32173;DHT22;18679;45.190;5.722;2023-04-01T20:27:33;13.20;60.70
32173;DHT22;18679;45.190;5.722;2023-04-01T20:40:40;13.10;60.70
32173;DHT22;18679;45.190;5.722;2023-04-01T21:03:26;13.10;60.50
32173;DHT22;18679;45.190;5.722;2023-04-01T21:16:52;13.20;61.80
32173;DHT22;18679;45.190;5.722;2023-04-01T21:30:29;13.30;62.40
32173;DHT22;18679;45.190;5.722;2023-04-01T21:33:50;13.30;62.30
32173;DHT22;18679;45.190;5.722;2023-04-01T21:37:26;13.30;62.20
32173;DHT22;18679;45.190;5.722;2023-04-01T21:40:56;13.30;62.00
32173;DHT22;18679;45.190;5.722;2023-04-01T22:07:14;12.90;63.10
32173;DHT22;18679;45.190;5.722;2023-04-01T22:16:57;12.90;63.10
32173;DHT22;18679;45.190;5.722;2023-04-01T22:24:05;12.80;63.10
32173;DHT22;18679;45.190;5.722;2023-04-01T22:30:24;12.60;63.30
32173;DHT22;18679;45.190;5.722;2023-04-01T22:40:49;12.70;63.60
32173;DHT22;18679;45.190;5.722;2023-04-01T22:43:55;12.70;63.50
32173;DHT22;18679;45.190;5.722;2023-04-01T22:47:15;12.80;63.30
32173;DHT22;18679;45.190;5.722;2023-04-01T22:54:12;12.90;62.80
32173;DHT22;18679;45.190;5.722;2023-04-01T22:57:35;13.00;62.70
32173;DHT22;18679;45.190;5.722;2023-04-01T23:00:43;13.00;62.50
32173;DHT22;18679;45.190;5.722;2023-04-01T23:03:48;13.10;62.50
32173;DHT22;18679;45.190;5.722;2023-04-01T23:06:53;13.10;62.40
32173;DHT22;18679;45.190;5.722;2023-04-01T23:09:57;13.10;62.30
32173;DHT22;18679;45.190;5.722;2023-04-01T23:13:01;13.10;62.30
32173;DHT22;18679;45.190;5.722;2023-04-01T23:16:03;13.10;62.40
32173;DHT22;18679;45.190;5.722;2023-04-01T23:19:15;13.10;62.50
32173;DHT22;18679;45.190;5.722;2023-04-01T23:26:25;13.10;62.40
32173;DHT22;18679;45.190;5.722;2023-04-01T23:29:00;13.10;62.30
32173;DHT22;18679;45.190;5.722;2023-04-01T23:32:03;13.20;62.20
32173;DHT22;18679;45.190;5.722;2023-04-01T23:35:15;13.20;62.30
32173;DHT22;18679;45.190;5.722;2023-04-01T23:38:18;13.20;62.20
32173;DHT22;18679;45.190;5.722;2023-04-01T23:41:30;13.30;62.30
32173;DHT22;18679;45.190;5.722;2023-04-01T23:44:33;13.30;62.20
32173;DHT22;18679;45.190;5.722;2023-04-01T23:47:38;13.30;62.10
32173;DHT22;18679;45.190;5.722;2023-04-01T23:50:40;13.30;62.10
32173;DHT22;18679;45.190;5.722;2023-04-01T23:53:44;13.30;62.00
32173;DHT22;18679;45.190;5.722;2023-04-01T23:56:50;13.40;62.10
